Aviation Digital Data Service (ADDS)

Output produced by TAFs form (1152 UTC 08 December 2016)
found at http://www.aviationweather.gov/adds/tafs/
 
KRIC 081138Z 0812/0912 VRB03KT P6SM OVC050 
     FM081400 30007KT P6SM OVC035 
     FM081900 31010KT P6SM BKN250 
     FM090000 32009KT P6SM SKC